Terminal Aerodrome Forecast
Issued by NWS Louisville, KY

Home | Current Version | Previous Version | Text Only | Print | Product List | Glossary On
Versions: 1 2 3 4 5 6 7 8 9 10 11 12 13 14 15 16 17 18
000
FTUS43 KLMK 311200 AAA
TAFSDF
TAF AMD
KSDF 311237Z 3113/0118 27012KT P6SM VCSH BKN008 BKN015 OVC025
     FM311600 26012KT P6SM BKN025 OVC100
     FM312200 28010KT P6SM SCT025 BKN200
     FM010300 36007KT P6SM SCT011 OVC020
     FM010600 32006KT 6SM BR SCT007 OVC011
      TEMPO 0109/0113 4SM BR OVC007=

USA.gov is the U.S. government's official web portal to all federal, state and local government web resources and services.